createdAt,value
2023-03-13T00:01:39.648Z,28.87
2023-03-13T00:04:09.922Z,29.47
2023-03-13T00:06:41.047Z,30.60
2023-03-13T00:09:12.213Z,33.33
2023-03-13T00:11:41.214Z,33.43
2023-03-13T00:14:10.696Z,30.50
2023-03-13T00:16:39.901Z,29.00
2023-03-13T00:19:10.694Z,28.40
2023-03-13T00:21:41.174Z,31.63
2023-03-13T00:24:12.763Z,31.90
2023-03-13T00:26:41.361Z,30.87
2023-03-13T00:29:09.918Z,27.50
2023-03-13T00:31:38.408Z,36.13
2023-03-13T00:34:07.049Z,26.63
2023-03-13T00:36:37.887Z,30.97
2023-03-13T00:39:07.892Z,29.30
2023-03-13T00:41:38.886Z,30.47
2023-03-13T00:44:08.264Z,26.90
2023-03-13T00:46:37.497Z,29.57
2023-03-13T00:49:06.714Z,28.50
2023-03-13T00:51:37.159Z,32.07
2023-03-13T00:54:06.199Z,29.00
2023-03-13T00:56:35.113Z,30.93
2023-03-13T00:59:04.056Z,28.77
2023-03-13T01:01:35.974Z,28.90
2023-03-13T01:04:08.305Z,30.03
2023-03-13T01:06:42.841Z,33.83
2023-03-13T01:09:15.629Z,32.80
2023-03-13T01:11:46.382Z,33.37
2023-03-13T01:14:21.063Z,31.23
2023-03-13T01:16:49.795Z,28.40
2023-03-13T01:19:19.045Z,31.40
2023-03-13T01:21:49.593Z,38.20
2023-03-13T01:24:19.270Z,38.67
2023-03-13T01:26:48.273Z,41.10
2023-03-13T01:29:17.761Z,32.30
2023-03-13T01:31:46.503Z,32.73
2023-03-13T01:34:15.106Z,31.20
2023-03-13T01:36:43.784Z,37.03
2023-03-13T01:39:13.788Z,33.43
2023-03-13T01:41:42.434Z,35.40
2023-03-13T01:44:24.163Z,30.80
2023-03-13T01:46:54.258Z,36.37
2023-03-13T01:49:29.069Z,31.87
2023-03-13T01:52:10.208Z,36.17
2023-03-13T01:54:52.947Z,35.40
2023-03-13T01:57:28.240Z,35.93
2023-03-13T02:00:02.175Z,36.17
2023-03-13T02:02:48.044Z,35.73
2023-03-13T02:05:20.868Z,31.37
2023-03-13T02:07:58.434Z,36.73
2023-03-13T02:10:30.904Z,31.20
2023-03-13T02:13:02.053Z,35.30
2023-03-13T02:15:32.409Z,36.63
2023-03-13T02:18:01.535Z,30.80
2023-03-13T02:20:30.252Z,38.10
2023-03-13T02:23:08.729Z,35.73
2023-03-13T02:25:45.702Z,34.40
2023-03-13T02:28:22.123Z,36.03
2023-03-13T02:30:55.305Z,31.80
2023-03-13T02:33:28.805Z,36.70
2023-03-13T02:35:58.150Z,41.77
2023-03-13T02:38:31.110Z,31.20
2023-03-13T02:41:03.633Z,34.73
2023-03-13T02:43:35.184Z,38.73
2023-03-13T02:46:10.253Z,37.80
2023-03-13T02:48:46.398Z,38.43
2023-03-13T02:51:23.704Z,40.27
2023-03-13T02:53:56.718Z,39.53
2023-03-13T02:56:30.151Z,34.80
2023-03-13T02:58:59.233Z,37.87
2023-03-13T03:01:28.523Z,37.73
2023-03-13T03:03:57.309Z,33.27
2023-03-13T03:06:26.704Z,39.67
2023-03-13T03:08:56.546Z,41.30
2023-03-13T03:11:28.568Z,38.23
2023-03-13T03:14:03.310Z,36.70
2023-03-13T03:16:37.513Z,37.30
2023-03-13T03:19:08.433Z,33.20
2023-03-13T03:21:37.363Z,34.37
2023-03-13T03:24:06.994Z,29.60
2023-03-13T03:26:37.346Z,32.20
2023-03-13T03:29:12.627Z,31.70
2023-03-13T03:31:42.431Z,31.20
2023-03-13T03:34:11.350Z,37.20
2023-03-13T03:36:40.056Z,50.23
2023-03-13T03:39:08.623Z,36.47
2023-03-13T03:41:38.852Z,33.43
2023-03-13T03:44:08.538Z,41.27
2023-03-13T03:46:49.288Z,32.90
2023-03-13T03:49:18.533Z,35.50
2023-03-13T03:51:48.609Z,46.53
2023-03-13T03:54:18.439Z,41.13
2023-03-13T03:56:48.474Z,31.33
2023-03-13T03:59:17.107Z,30.63
2023-03-13T04:01:48.773Z,36.17
2023-03-13T04:04:22.564Z,38.13
2023-03-13T04:06:55.480Z,41.73
2023-03-13T04:09:24.039Z,38.03
2023-03-13T04:11:54.097Z,41.07
2023-03-13T04:14:22.788Z,35.43
2023-03-13T04:16:51.730Z,44.87
2023-03-13T04:19:21.012Z,40.20
2023-03-13T04:21:49.583Z,38.90
2023-03-13T04:24:20.154Z,37.03
2023-03-13T04:26:49.225Z,38.13
2023-03-13T04:29:19.135Z,37.70
2023-03-13T04:31:56.343Z,36.37
2023-03-13T04:34:35.155Z,44.43
2023-03-13T04:37:14.623Z,39.73
2023-03-13T04:39:54.597Z,40.90
2023-03-13T04:42:55.732Z,36.60
2023-03-13T04:45:41.314Z,36.87
2023-03-13T04:48:32.944Z,36.67
2023-03-13T04:51:30.890Z,34.57
2023-03-13T04:54:17.985Z,35.47
2023-03-13T04:57:12.885Z,33.33
2023-03-13T04:59:56.045Z,31.20
2023-03-13T05:02:55.258Z,51.03
2023-03-13T05:05:23.747Z,32.20
2023-03-13T05:08:15.117Z,33.90
2023-03-13T05:11:06.996Z,34.03
2023-03-13T05:13:53.922Z,39.23
2023-03-13T05:16:41.206Z,34.70
2023-03-13T05:19:29.574Z,36.87
2023-03-13T05:22:24.300Z,35.37
2023-03-13T05:25:11.727Z,41.03
2023-03-13T05:27:49.149Z,35.67
2023-03-13T05:30:31.657Z,36.83
2023-03-13T05:33:26.372Z,31.70
2023-03-13T05:36:13.139Z,27.70
2023-03-13T05:38:59.259Z,30.33
2023-03-13T05:41:40.881Z,31.67
2023-03-13T05:44:32.579Z,30.43
2023-03-13T05:47:34.941Z,27.13
2023-03-13T05:50:20.528Z,28.23
2023-03-13T05:53:08.525Z,31.60
2023-03-13T05:55:55.729Z,28.10
2023-03-13T05:58:44.276Z,33.20
2023-03-13T06:01:17.609Z,34.80
2023-03-13T06:03:59.219Z,30.10
2023-03-13T06:06:28.823Z,32.27
2023-03-13T06:08:59.901Z,29.80
2023-03-13T06:11:31.157Z,36.83
2023-03-13T06:14:00.228Z,23.23
2023-03-13T06:16:35.530Z,25.60
2023-03-13T06:19:22.599Z,35.30
2023-03-13T06:21:51.191Z,25.87
2023-03-13T06:24:21.111Z,22.93
2023-03-13T06:26:50.032Z,25.50
2023-03-13T06:29:19.343Z,26.90
2023-03-13T06:31:47.989Z,21.90
2023-03-13T06:34:16.688Z,23.37
2023-03-13T06:36:45.429Z,26.10
2023-03-13T06:39:14.671Z,19.23
2023-03-13T06:41:44.701Z,21.90
2023-03-13T06:44:13.278Z,19.93
2023-03-13T06:46:41.925Z,18.60
2023-03-13T06:49:11.312Z,22.10
2023-03-13T06:51:39.814Z,14.03
2023-03-13T06:54:08.922Z,16.53
2023-03-13T06:56:37.456Z,16.43
2023-03-13T06:59:07.420Z,12.90
2023-03-13T07:01:36.051Z,20.80
2023-03-13T07:04:04.664Z,12.43
2023-03-13T07:06:33.310Z,17.27
2023-03-13T07:09:02.120Z,13.70
2023-03-13T07:11:30.861Z,18.77
2023-03-13T07:14:15.232Z,19.77
2023-03-13T07:16:46.629Z,16.13
2023-03-13T07:19:15.693Z,14.57
2023-03-13T07:21:47.337Z,17.13
2023-03-13T07:24:16.124Z,22.23
2023-03-13T07:26:58.126Z,16.23
2023-03-13T07:29:30.850Z,15.10
2023-03-13T07:32:00.973Z,14.73
2023-03-13T07:34:29.948Z,14.90
2023-03-13T07:36:58.795Z,13.73
2023-03-13T07:39:27.457Z,13.30
2023-03-13T07:41:56.300Z,15.83
2023-03-13T07:44:24.860Z,12.27
2023-03-13T07:46:53.327Z,12.23
2023-03-13T07:49:23.337Z,13.80
2023-03-13T07:51:52.010Z,15.60
2023-03-13T07:54:20.622Z,14.53
2023-03-13T07:56:49.229Z,12.50
2023-03-13T07:59:17.917Z,16.83
2023-03-13T08:01:46.544Z,19.10
2023-03-13T08:04:15.560Z,12.80
2023-03-13T08:06:45.529Z,12.10
2023-03-13T08:09:14.066Z,12.60
2023-03-13T08:11:44.460Z,14.20
2023-03-13T08:14:13.094Z,10.53
2023-03-13T08:16:41.951Z,12.17
2023-03-13T08:19:11.802Z,10.00
2023-03-13T08:21:40.595Z,12.97
2023-03-13T08:24:13.442Z,10.17
2023-03-13T08:26:43.496Z,11.30
2023-03-13T08:29:15.246Z,13.00
2023-03-13T08:31:47.686Z,11.07
2023-03-13T08:34:18.653Z,11.60
2023-03-13T08:36:47.653Z,10.33
2023-03-13T08:39:20.137Z,12.67
2023-03-13T08:41:49.162Z,12.10
2023-03-13T08:44:21.135Z,18.63
2023-03-13T08:46:50.763Z,20.33
2023-03-13T08:49:19.845Z,10.50
2023-03-13T08:51:48.892Z,11.43
2023-03-13T08:54:18.766Z,9.87
2023-03-13T08:56:47.255Z,10.10
2023-03-13T08:59:16.291Z,8.30
2023-03-13T09:01:44.907Z,8.80
2023-03-13T09:04:13.613Z,9.17
2023-03-13T09:06:42.458Z,13.73
2023-03-13T09:09:12.777Z,8.17
2023-03-13T09:11:42.637Z,8.57
2023-03-13T09:14:12.245Z,11.23
2023-03-13T09:16:40.726Z,8.30
2023-03-13T09:19:09.432Z,9.27
2023-03-13T09:21:39.300Z,9.67
2023-03-13T09:24:09.310Z,12.67
2023-03-13T09:26:38.696Z,12.13
2023-03-13T09:29:08.967Z,8.83
2023-03-13T09:31:38.253Z,9.40
2023-03-13T09:34:06.912Z,8.70
2023-03-13T09:36:35.647Z,9.53
2023-03-13T09:39:04.451Z,7.73
2023-03-13T09:41:40.687Z,13.03
2023-03-13T09:44:26.715Z,8.73
2023-03-13T09:47:05.240Z,8.27
2023-03-13T09:49:38.985Z,8.83
2023-03-13T09:52:18.244Z,8.40
2023-03-13T09:54:55.405Z,8.57
2023-03-13T09:57:34.701Z,9.20
2023-03-13T10:00:14.563Z,8.83
2023-03-13T10:02:49.043Z,9.00
2023-03-13T10:05:23.690Z,9.80
2023-03-13T10:07:56.095Z,10.70
2023-03-13T10:10:41.084Z,11.80
2023-03-13T10:13:23.559Z,9.00
2023-03-13T10:16:00.313Z,9.40
2023-03-13T10:18:29.007Z,8.13
2023-03-13T10:21:02.854Z,13.03
2023-03-13T10:23:41.845Z,9.10
2023-03-13T10:26:17.882Z,9.50
2023-03-13T10:28:46.385Z,10.80
2023-03-13T10:31:27.741Z,11.20
2023-03-13T10:34:07.230Z,10.10
2023-03-13T10:36:43.732Z,10.13
2023-03-13T10:39:18.934Z,9.20
2023-03-13T10:41:49.936Z,10.77
2023-03-13T10:44:20.968Z,9.37
2023-03-13T10:46:52.408Z,8.40
2023-03-13T10:49:24.200Z,10.00
2023-03-13T10:51:55.110Z,8.10
2023-03-13T10:54:27.134Z,10.13
2023-03-13T10:57:22.112Z,11.20
2023-03-13T10:59:53.165Z,9.30
2023-03-13T11:02:38.546Z,8.43
2023-03-13T11:05:33.700Z,9.40
2023-03-13T11:08:21.995Z,13.90
2023-03-13T11:11:00.392Z,13.23
2023-03-13T11:13:38.480Z,10.27
2023-03-13T11:16:20.326Z,13.73
2023-03-13T11:19:29.696Z,13.80
2023-03-13T11:22:24.147Z,11.60
2023-03-13T11:25:04.842Z,10.37
2023-03-13T11:27:44.171Z,9.77
2023-03-13T11:30:40.151Z,10.50
2023-03-13T11:33:25.307Z,8.90
2023-03-13T11:36:04.126Z,8.30
2023-03-13T11:38:38.597Z,9.33
2023-03-13T11:41:31.920Z,8.00
2023-03-13T11:44:29.522Z,8.70
2023-03-13T11:47:39.555Z,11.93
2023-03-13T11:50:31.702Z,8.77
2023-03-13T11:53:34.918Z,12.17
2023-03-13T11:56:16.678Z,9.40
2023-03-13T11:59:09.117Z,8.83
2023-03-13T12:01:46.730Z,15.93
2023-03-13T12:04:27.126Z,11.60
2023-03-13T12:07:04.481Z,10.37
2023-03-13T12:09:43.287Z,10.63
2023-03-13T12:12:24.602Z,8.40
2023-03-13T12:15:00.325Z,8.70
2023-03-13T12:17:36.108Z,11.60
2023-03-13T12:20:13.179Z,9.30
2023-03-13T12:22:49.456Z,11.93
2023-03-13T12:25:26.009Z,10.67
2023-03-13T12:28:02.361Z,7.90
2023-03-13T12:30:43.286Z,10.97
2023-03-13T12:33:24.640Z,13.00
2023-03-13T12:36:05.130Z,8.60
2023-03-13T12:38:42.266Z,11.57
2023-03-13T12:41:24.688Z,8.53
2023-03-13T12:44:07.765Z,8.03
2023-03-13T12:46:47.119Z,13.13
2023-03-13T12:50:06.111Z,10.20
2023-03-13T12:53:18.102Z,10.07
2023-03-13T12:56:09.164Z,8.10
2023-03-13T12:58:50.789Z,9.40
2023-03-13T13:01:32.971Z,8.20
2023-03-13T13:04:06.464Z,8.87
2023-03-13T13:07:01.804Z,10.63
2023-03-13T13:09:33.135Z,9.20
2023-03-13T13:12:20.441Z,13.20
2023-03-13T13:15:06.010Z,8.40
2023-03-13T13:18:04.994Z,8.73
2023-03-13T13:20:46.085Z,8.70
2023-03-13T13:23:37.633Z,9.47
2023-03-13T13:26:51.264Z,9.20
2023-03-13T13:30:01.676Z,11.60
2023-03-13T13:32:48.304Z,7.90
2023-03-13T13:35:33.070Z,9.67
2023-03-13T13:38:37.125Z,10.13
2023-03-13T13:41:28.290Z,8.70
2023-03-13T13:44:29.628Z,7.97
2023-03-13T13:47:03.889Z,10.70
2023-03-13T13:49:37.753Z,14.17
2023-03-13T13:52:38.851Z,8.03
2023-03-13T13:55:43.949Z,9.97
2023-03-13T13:58:23.677Z,11.87
2023-03-13T14:00:58.033Z,8.00
2023-03-13T14:03:30.628Z,11.33
2023-03-13T14:06:05.115Z,9.10
2023-03-13T14:08:40.042Z,7.77
2023-03-13T14:11:26.489Z,10.20
2023-03-13T14:14:13.107Z,11.53
2023-03-13T14:16:47.443Z,9.63
2023-03-13T14:19:42.992Z,8.90
2023-03-13T14:22:14.336Z,8.07
2023-03-13T14:24:43.544Z,7.20
2023-03-13T14:27:21.527Z,7.67
2023-03-13T14:30:02.573Z,9.30
2023-03-13T14:32:31.639Z,8.27
2023-03-13T14:35:01.671Z,8.27
2023-03-13T14:37:39.016Z,8.60
2023-03-13T14:40:10.663Z,7.60
2023-03-13T14:42:46.679Z,8.17
2023-03-13T14:45:21.472Z,10.23
2023-03-13T14:47:52.310Z,8.20
2023-03-13T14:50:26.969Z,8.33
2023-03-13T14:53:04.960Z,9.60
2023-03-13T14:55:40.299Z,11.10
2023-03-13T14:58:29.986Z,9.97
2023-03-13T15:00:59.919Z,8.43
2023-03-13T15:03:34.044Z,10.80
2023-03-13T15:06:21.577Z,12.27
2023-03-13T15:09:12.861Z,8.90
2023-03-13T15:11:44.868Z,9.23
2023-03-13T15:14:38.735Z,10.00
2023-03-13T15:17:16.559Z,11.60
2023-03-13T15:19:50.467Z,13.37
2023-03-13T15:22:28.120Z,11.30
2023-03-13T15:25:06.089Z,12.00
2023-03-13T15:27:35.806Z,9.10
2023-03-13T15:30:05.831Z,8.07
2023-03-13T15:32:38.431Z,13.77
2023-03-13T15:35:27.345Z,9.50
2023-03-13T15:37:59.291Z,12.20
2023-03-13T15:40:30.873Z,14.43
2023-03-13T15:43:00.677Z,11.57
2023-03-13T15:45:29.677Z,11.10
2023-03-13T15:47:58.496Z,12.33
2023-03-13T15:50:30.818Z,9.53
2023-03-13T15:53:01.898Z,10.63
2023-03-13T15:55:31.143Z,9.40
2023-03-13T15:57:59.872Z,9.43
2023-03-13T16:00:28.915Z,12.00
2023-03-13T16:02:57.556Z,12.73
2023-03-13T16:05:26.160Z,11.07
2023-03-13T16:07:54.952Z,13.83
2023-03-13T16:10:29.382Z,9.97
2023-03-13T16:12:58.260Z,8.60
2023-03-13T16:15:27.347Z,9.30
2023-03-13T16:17:56.015Z,9.10
2023-03-13T16:20:26.476Z,8.87
2023-03-13T16:22:55.242Z,11.03
2023-03-13T16:25:26.513Z,9.73
2023-03-13T16:27:56.292Z,10.53
2023-03-13T16:30:28.219Z,12.70
2023-03-13T16:32:57.305Z,14.43
2023-03-13T16:35:28.097Z,10.80
2023-03-13T16:37:58.727Z,10.63
2023-03-13T16:40:33.076Z,16.20
2023-03-13T16:43:02.460Z,10.83
2023-03-13T16:45:31.223Z,9.93
2023-03-13T16:48:00.057Z,16.67
2023-03-13T16:50:34.352Z,9.20
2023-03-13T16:53:03.296Z,13.90
2023-03-13T16:55:36.737Z,11.70
2023-03-13T16:58:06.208Z,11.23
2023-03-13T17:00:36.737Z,12.30
2023-03-13T17:03:05.496Z,10.70
2023-03-13T17:05:34.210Z,8.33
2023-03-13T17:08:02.907Z,8.70
2023-03-13T17:10:34.747Z,9.60
2023-03-13T17:13:05.512Z,9.83
2023-03-13T17:15:34.460Z,8.83
2023-03-13T17:18:03.588Z,11.03
2023-03-13T17:20:32.978Z,10.50
2023-03-13T17:23:02.074Z,12.80
2023-03-13T17:25:33.186Z,9.33
2023-03-13T17:28:01.694Z,10.00
2023-03-13T17:30:33.275Z,11.40
2023-03-13T17:33:02.450Z,10.07
2023-03-13T17:35:31.692Z,8.93
2023-03-13T17:38:00.264Z,9.80
2023-03-13T17:40:32.683Z,10.47
2023-03-13T17:43:01.271Z,7.40
2023-03-13T17:45:30.946Z,12.00
2023-03-13T17:47:59.511Z,8.80
2023-03-13T17:50:29.196Z,12.63
2023-03-13T17:52:58.061Z,9.10
2023-03-13T17:55:26.822Z,8.70
2023-03-13T17:57:59.560Z,8.53
2023-03-13T18:00:31.746Z,9.23
2023-03-13T18:03:02.164Z,10.73
2023-03-13T18:05:30.819Z,8.00
2023-03-13T18:07:59.567Z,10.80
2023-03-13T18:10:31.348Z,9.83
2023-03-13T18:13:01.374Z,13.07
2023-03-13T18:15:30.147Z,9.27
2023-03-13T18:17:58.727Z,14.07
2023-03-13T18:20:32.250Z,10.00
2023-03-13T18:23:01.009Z,10.03
2023-03-13T18:25:31.002Z,10.50
2023-03-13T18:28:01.274Z,10.03
2023-03-13T18:30:29.887Z,7.93
2023-03-13T18:32:58.457Z,8.23
2023-03-13T18:35:27.095Z,6.63
2023-03-13T18:37:55.802Z,7.53
2023-03-13T18:40:27.074Z,7.43
2023-03-13T18:42:56.341Z,9.10
2023-03-13T18:45:28.261Z,8.43
2023-03-13T18:47:56.913Z,7.87
2023-03-13T18:50:28.542Z,7.80
2023-03-13T18:52:59.551Z,8.97
2023-03-13T18:55:31.468Z,12.03
2023-03-13T18:58:00.121Z,8.57
2023-03-13T19:00:32.201Z,8.20
2023-03-13T19:03:00.913Z,7.20
2023-03-13T19:05:29.837Z,8.43
2023-03-13T19:07:58.504Z,11.07
2023-03-13T19:10:30.125Z,9.43
2023-03-13T19:12:59.522Z,8.93
2023-03-13T19:15:32.604Z,9.23
2023-03-13T19:18:03.595Z,13.50
2023-03-13T19:20:32.862Z,6.50
2023-03-13T19:23:01.498Z,8.63
2023-03-13T19:25:34.007Z,7.93
2023-03-13T19:28:02.493Z,7.30
2023-03-13T19:30:32.493Z,10.17
2023-03-13T19:33:01.329Z,7.87
2023-03-13T19:35:30.010Z,7.70
2023-03-13T19:37:58.666Z,7.23
2023-03-13T19:40:29.548Z,7.97
2023-03-13T19:42:58.091Z,10.70
2023-03-13T19:45:27.678Z,10.33
2023-03-13T19:47:57.613Z,7.40
2023-03-13T19:50:27.755Z,9.53
2023-03-13T19:52:56.538Z,9.70
2023-03-13T19:55:25.362Z,12.70
2023-03-13T19:57:53.957Z,8.13
2023-03-13T20:00:27.487Z,9.10
2023-03-13T20:02:57.532Z,10.17
2023-03-13T20:05:28.921Z,8.57
2023-03-13T20:07:58.237Z,8.80
2023-03-13T20:10:27.111Z,8.93
2023-03-13T20:12:55.749Z,7.60
2023-03-13T20:15:24.377Z,10.37
2023-03-13T20:17:53.144Z,10.40
2023-03-13T20:20:23.370Z,8.10
2023-03-13T20:22:54.114Z,7.77
2023-03-13T20:25:24.083Z,10.87
2023-03-13T20:27:53.625Z,9.87
2023-03-13T20:30:24.056Z,9.03
2023-03-13T20:32:59.271Z,10.00
2023-03-13T20:35:30.559Z,8.20
2023-03-13T20:38:01.751Z,6.70
2023-03-13T20:40:31.725Z,9.67
2023-03-13T20:43:00.914Z,8.80
2023-03-13T20:45:30.900Z,6.77
2023-03-13T20:48:00.174Z,12.90
2023-03-13T20:50:30.264Z,9.97
2023-03-13T20:52:58.818Z,8.33
2023-03-13T20:55:27.634Z,7.63
2023-03-13T20:57:56.123Z,8.13
2023-03-13T21:00:25.175Z,10.33
2023-03-13T21:02:54.865Z,8.63
2023-03-13T21:05:23.422Z,7.63
2023-03-13T21:07:54.223Z,13.13
2023-03-13T21:10:22.960Z,7.90
2023-03-13T21:12:51.715Z,8.23
2023-03-13T21:15:20.348Z,7.80
2023-03-13T21:17:49.061Z,13.93
2023-03-13T21:20:17.732Z,9.50
2023-03-13T21:22:46.238Z,9.10
2023-03-13T21:25:17.199Z,10.93
2023-03-13T21:27:45.840Z,14.13
2023-03-13T21:30:18.076Z,7.50
2023-03-13T21:32:48.155Z,8.50
2023-03-13T21:35:17.630Z,9.63
2023-03-13T21:37:46.629Z,11.23
2023-03-13T21:40:16.642Z,9.40
2023-03-13T21:42:45.142Z,8.87
2023-03-13T21:45:13.852Z,9.50
2023-03-13T21:47:42.381Z,12.97
2023-03-13T21:50:13.359Z,8.20
2023-03-13T21:52:43.716Z,14.60
2023-03-13T21:55:14.130Z,14.00
2023-03-13T21:57:44.036Z,12.93
2023-03-13T22:00:15.833Z,7.93
2023-03-13T22:02:45.202Z,12.33
2023-03-13T22:05:13.961Z,14.40
2023-03-13T22:07:42.522Z,10.70
2023-03-13T22:10:12.642Z,9.60
2023-03-13T22:12:41.218Z,11.47
2023-03-13T22:15:12.512Z,8.53
2023-03-13T22:17:41.053Z,9.80
2023-03-13T22:20:11.631Z,10.10
2023-03-13T22:22:40.142Z,12.13
2023-03-13T22:25:09.791Z,9.27
2023-03-13T22:27:39.364Z,11.03
2023-03-13T22:30:11.889Z,11.17
2023-03-13T22:32:40.432Z,11.93
2023-03-13T22:35:09.995Z,10.63
2023-03-13T22:37:38.786Z,10.60
2023-03-13T22:40:09.058Z,15.50
2023-03-13T22:42:37.544Z,10.90
2023-03-13T22:45:07.257Z,9.93
2023-03-13T22:47:37.128Z,10.30
2023-03-13T22:50:06.458Z,10.40
2023-03-13T22:52:34.999Z,8.07
2023-03-13T22:55:03.555Z,8.50
2023-03-13T22:57:32.401Z,10.50
2023-03-13T23:00:01.054Z,10.67
2023-03-13T23:02:30.169Z,7.90
2023-03-13T23:05:01.228Z,10.23
2023-03-13T23:07:30.835Z,9.30
2023-03-13T23:10:00.455Z,10.47
2023-03-13T23:12:30.852Z,8.70
2023-03-13T23:15:00.558Z,8.33
2023-03-13T23:17:32.996Z,8.13
2023-03-13T23:20:08.698Z,6.37
2023-03-13T23:22:38.195Z,7.00
2023-03-13T23:25:08.192Z,5.70
2023-03-13T23:27:36.940Z,7.10
2023-03-13T23:30:07.444Z,6.67
2023-03-13T23:32:38.145Z,5.20
2023-03-13T23:35:10.881Z,10.13
2023-03-13T23:37:40.310Z,5.60
2023-03-13T23:40:11.873Z,10.43
2023-03-13T23:42:40.372Z,6.07
2023-03-13T23:45:09.977Z,6.50
2023-03-13T23:47:38.435Z,6.63
2023-03-13T23:50:09.577Z,6.20
2023-03-13T23:52:38.422Z,5.67
2023-03-13T23:55:08.843Z,5.43
2023-03-13T23:57:38.485Z,7.10
